Time;durP1;ratioP1;P1;durP2;ratioP2;P2;SDS_P1;SDS_P2;PMS_P1;PMS_P2;Temp;Humidity;BMP_temperature;BMP_pressure;BME280_temperature;BME280_humidity;BME280_pressure;Samples;Min_cycle;Max_cycle;Signal;HPM_P1;HPM_P2
2022/07/07 00:01:02;;;;;;;7.20;5.85;;;11.50;99.90;;;;;;5053890;28;20021;-91
2022/07/07 00:03:27;;;;;;;7.40;4.65;;;11.40;99.90;;;;;;5063102;28;20387;-88
2022/07/07 00:05:54;;;;;;;5.30;4.78;;;11.40;99.90;;;;;;5072610;28;20019;-90
2022/07/07 00:08:19;;;;;;;8.48;4.95;;;11.40;99.90;;;;;;5072646;28;20020;-90
2022/07/07 00:10:45;;;;;;;5.18;4.75;;;11.30;99.90;;;;;;5089300;28;20048;-88
2022/07/07 00:13:13;;;;;;;5.95;5.35;;;11.30;99.90;;;;;;5093704;28;20513;-90
2022/07/07 00:15:39;;;;;;;5.18;4.65;;;11.10;99.90;;;;;;5074228;28;20045;-91
2022/07/07 00:18:05;;;;;;;5.32;4.75;;;10.90;99.90;;;;;;5073522;28;20025;-84
2022/07/07 00:20:31;;;;;;;5.18;4.68;;;10.90;99.90;;;;;;5055884;28;20043;-91
2022/07/07 00:22:57;;;;;;;5.80;4.93;;;10.80;99.90;;;;;;5055164;28;20029;-90
2022/07/07 00:25:24;;;;;;;5.38;4.88;;;10.80;99.90;;;;;;5073722;28;20508;-83
2022/07/07 00:27:50;;;;;;;7.28;4.93;;;10.80;99.90;;;;;;5073000;28;20082;-90
2022/07/07 00:30:16;;;;;;;7.55;5.53;;;10.80;99.90;;;;;;5055122;28;20437;-90
2022/07/07 00:32:41;;;;;;;7.10;5.38;;;10.80;99.90;;;;;;5054899;28;20132;-84
2022/07/07 00:35:08;;;;;;;5.68;5.10;;;10.80;99.90;;;;;;5054589;28;20029;-84
2022/07/07 00:37:34;;;;;;;6.05;5.53;;;10.80;99.90;;;;;;5055431;28;20032;-89
2022/07/07 00:40:00;;;;;;;8.25;5.53;;;10.90;99.90;;;;;;5055411;28;20020;-90
2022/07/07 00:42:27;;;;;;;7.78;5.47;;;10.90;99.90;;;;;;5073095;28;20025;-84
2022/07/07 00:44:53;;;;;;;6.45;5.68;;;10.90;99.90;;;;;;5073101;28;20036;-84
2022/07/07 00:47:19;;;;;;;6.28;5.70;;;10.90;99.90;;;;;;5073129;28;20493;-91
2022/07/07 00:49:45;;;;;;;6.93;6.07;;;10.90;99.90;;;;;;5055154;28;20107;-83
2022/07/07 00:52:12;;;;;;;6.68;5.88;;;10.90;99.90;;;;;;5072841;28;20024;-84
2022/07/07 00:54:37;;;;;;;7.38;6.35;;;10.90;99.90;;;;;;5072823;28;20119;-84
2022/07/07 00:57:05;;;;;;;8.52;5.97;;;10.90;99.90;;;;;;5054947;28;20115;-84
2022/07/07 00:59:33;;;;;;;6.20;5.60;;;11.00;99.90;;;;;;5072953;28;20032;-84
2022/07/07 01:01:59;;;;;;;7.75;5.88;;;11.00;99.90;;;;;;5073090;28;20526;-91
2022/07/07 01:04:25;;;;;;;6.57;5.40;;;11.00;99.90;;;;;;5072243;28;20027;-83
2022/07/07 01:06:50;;;;;;;6.47;5.88;;;10.90;99.90;;;;;;5054912;28;20107;-84
2022/07/07 01:09:17;;;;;;;6.97;5.88;;;10.90;99.90;;;;;;5054255;28;20050;-83
2022/07/07 01:11:54;;;;;;;6.97;5.90;;;10.90;99.90;;;;;;5054377;28;20390;-91
2022/07/07 01:14:21;;;;;;;6.60;6.00;;;10.90;99.90;;;;;;5054555;28;20379;-84
2022/07/07 01:16:47;;;;;;;8.50;5.78;;;10.90;99.90;;;;;;5072615;28;20023;-84
2022/07/07 01:19:14;;;;;;;9.05;5.60;;;10.90;99.90;;;;;;5055119;28;20051;-90
2022/07/07 01:22:13;;;;;;;5.22;4.72;;;10.90;99.90;;;;;;5054783;28;20101;-89
2022/07/07 01:24:39;;;;;;;5.28;4.60;;;10.90;99.90;;;;;;5072436;28;20013;-84
2022/07/07 01:27:10;;;;;;;5.35;4.85;;;10.80;99.90;;;;;;5072211;28;20021;-84
2022/07/07 01:29:50;;;;;;;6.07;5.47;;;10.80;99.90;;;;;;5055018;28;20024;-90
2022/07/07 01:32:16;;;;;;;5.20;4.70;;;10.80;99.90;;;;;;5055243;28;20024;-90
2022/07/07 01:34:44;;;;;;;5.82;5.30;;;10.80;99.90;;;;;;5072752;28;20044;-84
2022/07/07 01:37:10;;;;;;;5.07;4.68;;;10.90;99.90;;;;;;5054386;28;20490;-84
2022/07/07 01:39:37;;;;;;;5.78;5.28;;;10.90;99.90;;;;;;5054605;28;20036;-90
2022/07/07 01:42:03;;;;;;;6.45;5.15;;;10.90;99.90;;;;;;5074033;28;20575;-90
2022/07/07 01:44:33;;;;;;;7.45;5.15;;;10.90;99.90;;;;;;5058318;28;20025;-84
2022/07/07 01:46:59;;;;;;;10.05;5.95;;;10.90;99.90;;;;;;5076597;28;20024;-84
2022/07/07 01:49:27;;;;;;;7.72;6.40;;;10.90;99.90;;;;;;5058489;28;20031;-83
2022/07/07 01:51:53;;;;;;;5.97;5.47;;;10.90;99.90;;;;;;5057970;28;20486;-84
2022/07/07 01:54:19;;;;;;;7.60;5.38;;;10.90;99.90;;;;;;5076678;28;20033;-86
2022/07/07 01:56:45;;;;;;;6.28;5.68;;;11.00;99.90;;;;;;5058551;28;20021;-84
2022/07/07 01:59:12;;;;;;;6.20;5.60;;;11.00;99.90;;;;;;5076359;28;20048;-84
2022/07/07 02:01:38;;;;;;;5.80;5.30;;;11.00;99.90;;;;;;5076383;28;20024;-84
2022/07/07 02:04:04;;;;;;;6.35;5.50;;;10.90;99.90;;;;;;5054605;28;20032;-89
2022/07/07 02:06:30;;;;;;;7.03;6.35;;;10.90;99.90;;;;;;5056368;28;20021;-89
2022/07/07 02:08:56;;;;;;;5.75;5.18;;;11.00;99.90;;;;;;5037290;28;20112;-90
2022/07/07 02:11:23;;;;;;;7.47;5.32;;;10.90;99.90;;;;;;5056438;28;20112;-90
2022/07/07 02:13:51;;;;;;;6.55;5.60;;;10.90;99.90;;;;;;5055775;28;20096;-84
2022/07/07 02:16:19;;;;;;;8.75;5.82;;;10.90;99.90;;;;;;5055641;28;20380;-90
2022/07/07 02:18:46;;;;;;;7.55;6.07;;;10.90;99.90;;;;;;5055637;28;20025;-90
2022/07/07 02:21:14;;;;;;;7.80;6.00;;;10.80;99.90;;;;;;5057538;28;20068;-90
2022/07/07 02:23:42;;;;;;;5.95;5.35;;;10.70;99.90;;;;;;5057887;28;20047;-84
2022/07/07 02:26:08;;;;;;;8.77;5.30;;;10.80;99.90;;;;;;5075649;28;20033;-84
2022/07/07 02:28:34;;;;;;;6.28;5.10;;;10.80;99.90;;;;;;5057666;28;20556;-84
2022/07/07 02:31:00;;;;;;;5.53;5.03;;;10.80;99.90;;;;;;5041396;28;20032;-84
2022/07/07 02:33:26;;;;;;;5.80;5.00;;;10.80;99.90;;;;;;5075098;28;20021;-87
2022/07/07 02:35:53;;;;;;;8.05;4.93;;;10.80;99.90;;;;;;5057727;28;20033;-84
2022/07/07 02:38:20;;;;;;;7.65;5.07;;;10.70;99.90;;;;;;5057734;28;20025;-84
2022/07/07 02:40:46;;;;;;;8.38;5.50;;;10.70;99.90;;;;;;5075414;28;20381;-83
2022/07/07 02:43:15;;;;;;;6.20;5.05;;;10.70;99.90;;;;;;5057274;28;20024;-89
2022/07/07 02:45:41;;;;;;;7.88;5.93;;;10.60;99.90;;;;;;5075306;28;20388;-90
2022/07/07 02:48:09;;;;;;;6.22;5.53;;;10.60;99.90;;;;;;5075345;28;20020;-90
2022/07/07 02:50:36;;;;;;;8.02;5.97;;;10.60;99.90;;;;;;5057078;28;20053;-83
2022/07/07 02:53:02;;;;;;;6.60;5.22;;;10.60;99.90;;;;;;5074608;28;20036;-83
2022/07/07 02:55:28;;;;;;;6.55;5.80;;;10.60;99.90;;;;;;5075390;28;20580;-84
2022/07/07 02:57:54;;;;;;;6.63;6.00;;;10.60;99.90;;;;;;5057305;28;20019;-89
2022/07/07 03:00:20;;;;;;;6.30;5.80;;;10.60;99.90;;;;;;5075013;28;20060;-83
2022/07/07 03:02:46;;;;;;;6.53;5.50;;;10.60;99.90;;;;;;5056802;28;20104;-88
2022/07/07 03:05:12;;;;;;;7.78;7.00;;;10.60;99.90;;;;;;5057239;28;20558;-84
2022/07/07 03:07:38;;;;;;;6.05;5.45;;;10.60;99.90;;;;;;5056516;28;20382;-84
2022/07/07 03:10:07;;;;;;;10.02;6.30;;;10.60;99.90;;;;;;5056359;28;20056;-91
2022/07/07 03:12:33;;;;;;;9.40;6.07;;;10.60;99.90;;;;;;5056930;28;20025;-83
2022/07/07 03:15:00;;;;;;;7.47;6.53;;;10.70;99.90;;;;;;5056881;28;20039;-84
2022/07/07 03:17:26;;;;;;;8.57;6.40;;;10.70;99.90;;;;;;5074284;28;20110;-90
2022/07/07 03:19:52;;;;;;;9.23;6.47;;;10.80;99.90;;;;;;5074480;28;20028;-84
2022/07/07 03:22:18;;;;;;;9.63;6.90;;;10.90;99.90;;;;;;5074961;28;20021;-84
2022/07/07 03:24:45;;;;;;;9.23;6.57;;;11.00;99.90;;;;;;5056303;28;20048;-90
2022/07/07 03:27:11;;;;;;;8.27;6.57;;;11.10;99.90;;;;;;5056910;28;20433;-91
2022/07/07 03:29:37;;;;;;;9.55;6.07;;;11.10;99.90;;;;;;5074421;28;20109;-90
2022/07/07 03:32:04;;;;;;;7.95;6.07;;;11.30;99.90;;;;;;5074650;28;20066;-89
2022/07/07 03:34:31;;;;;;;6.80;6.22;;;11.50;99.90;;;;;;5056581;28;20044;-84
2022/07/07 03:36:57;;;;;;;11.35;6.68;;;11.70;99.90;;;;;;5074328;28;20371;-84
2022/07/07 03:39:23;;;;;;;7.00;6.25;;;12.00;99.90;;;;;;5056382;28;20031;-90
2022/07/07 03:41:49;;;;;;;8.07;6.55;;;12.20;99.90;;;;;;5074121;28;20367;-84
2022/07/07 03:44:15;;;;;;;10.38;6.30;;;12.40;99.90;;;;;;5074061;28;20383;-84
2022/07/07 03:46:40;;;;;;;6.93;5.85;;;12.60;99.90;;;;;;5074119;28;20025;-84
2022/07/07 03:49:07;;;;;;;7.32;6.20;;;12.80;99.90;;;;;;5074043;28;20028;-90
2022/07/07 03:51:33;;;;;;;6.38;5.32;;;13.00;99.90;;;;;;5056174;28;20082;-84
2022/07/07 03:53:59;;;;;;;6.10;5.35;;;13.10;99.90;;;;;;5055673;28;20024;-84
2022/07/07 03:56:25;;;;;;;7.30;5.25;;;13.30;99.90;;;;;;5073925;28;20055;-86
2022/07/07 03:58:52;;;;;;;5.53;5.03;;;13.50;99.90;;;;;;5055645;28;20490;-91
2022/07/07 04:01:18;;;;;;;10.70;4.88;;;13.70;99.90;;;;;;5073716;28;20020;-84
2022/07/07 04:03:46;;;;;;;7.22;5.53;;;13.70;99.90;;;;;;5055454;28;20513;-88
2022/07/07 04:06:14;;;;;;;9.40;6.30;;;13.70;99.90;;;;;;5073511;28;20017;-84
2022/07/07 04:08:40;;;;;;;8.85;7.10;;;13.90;99.90;;;;;;5055655;28;20028;-90
2022/07/07 04:11:05;;;;;;;8.55;5.53;;;14.10;99.90;;;;;;5073464;28;20044;-84
2022/07/07 04:13:32;;;;;;;9.32;5.40;;;14.20;99.90;;;;;;5055387;28;20162;-84
2022/07/07 04:15:58;;;;;;;6.55;5.95;;;14.20;99.90;;;;;;5073643;28;20032;-84
2022/07/07 04:18:23;;;;;;;7.68;5.93;;;14.30;99.90;;;;;;5055150;28;20023;-90
2022/07/07 04:20:50;;;;;;;14.18;6.05;;;14.50;99.90;;;;;;5073513;28;20382;-90
2022/07/07 04:23:16;;;;;;;13.48;7.20;;;14.60;99.90;;;;;;5055137;28;20100;-84
2022/07/07 04:25:42;;;;;;;12.00;6.38;;;14.80;99.90;;;;;;5055710;28;20394;-90
2022/07/07 04:28:08;;;;;;;11.60;8.38;;;15.00;99.90;;;;;;5072504;28;20029;-89
2022/07/07 04:30:40;;;;;;;12.60;9.82;;;15.20;99.90;;;;;;5060562;28;20549;-83
2022/07/07 04:33:06;;;;;;;12.25;9.10;;;15.10;99.90;;;;;;5048817;28;20024;-89
2022/07/07 04:35:33;;;;;;;8.25;7.07;;;15.30;99.90;;;;;;5079017;28;20044;-89
2022/07/07 04:37:58;;;;;;;11.45;8.20;;;15.30;99.90;;;;;;5068520;28;20028;-84
2022/07/07 04:40:25;;;;;;;17.35;10.93;;;15.30;99.90;;;;;;5057090;28;20380;-90
2022/07/07 04:42:51;;;;;;;27.67;13.30;;;15.30;99.90;;;;;;5056651;28;20020;-89
2022/07/07 04:45:17;;;;;;;19.42;13.27;;;15.30;99.90;;;;;;5081116;28;20036;-90
2022/07/07 04:47:43;;;;;;;19.42;13.43;;;15.40;99.90;;;;;;5087229;28;20020;-90
2022/07/07 04:50:10;;;;;;;24.05;14.35;;;15.50;99.90;;;;;;5083178;28;20059;-84
2022/07/07 04:52:50;;;;;;;18.85;13.07;;;15.50;99.90;;;;;;5065551;28;20023;-84
2022/07/07 04:55:16;;;;;;;18.45;14.35;;;15.60;99.90;;;;;;5044158;28;20080;-84
2022/07/07 04:57:47;;;;;;;16.90;12.93;;;15.70;99.90;;;;;;5056182;28;20084;-89
2022/07/07 05:00:17;;;;;;;18.42;12.93;;;15.80;99.90;;;;;;5074040;28;20097;-84
2022/07/07 05:02:43;;;;;;;17.55;12.85;;;15.80;99.90;;;;;;5085398;28;20036;-84
2022/07/07 05:05:09;;;;;;;19.15;13.13;;;15.80;99.90;;;;;;5065232;28;20036;-84
2022/07/07 05:07:38;;;;;;;17.70;12.32;;;15.90;99.90;;;;;;5085095;28;20052;-90
2022/07/07 05:10:08;;;;;;;20.75;13.70;;;16.00;99.90;;;;;;5070902;28;20055;-85
2022/07/07 05:12:33;;;;;;;22.50;13.30;;;16.20;99.90;;;;;;5072115;28;20557;-85
2022/07/07 05:15:02;;;;;;;22.27;14.75;;;16.30;99.90;;;;;;5054503;28;20123;-90
2022/07/07 05:17:36;;;;;;;17.20;14.43;;;16.30;99.90;;;;;;5043070;28;20023;-85
2022/07/07 05:20:07;;;;;;;18.15;13.27;;;16.30;99.90;;;;;;5079854;28;20051;-90
2022/07/07 05:22:33;;;;;;;19.05;13.82;;;16.50;99.90;;;;;;5071631;28;20029;-85
2022/07/07 05:25:01;;;;;;;15.38;12.40;;;16.60;99.90;;;;;;5041524;28;20027;-84
2022/07/07 05:27:27;;;;;;;16.08;11.52;;;16.70;99.90;;;;;;5071559;28;20016;-84
2022/07/07 05:29:53;;;;;;;19.00;12.38;;;16.80;99.90;;;;;;5053892;28;20035;-84
2022/07/07 05:32:21;;;;;;;16.83;12.20;;;16.80;99.90;;;;;;5054965;28;20025;-88
2022/07/07 05:34:47;;;;;;;18.50;11.68;;;16.90;99.90;;;;;;5034870;28;20040;-90
2022/07/07 05:37:13;;;;;;;12.52;9.50;;;16.90;99.90;;;;;;5052202;28;20079;-88
2022/07/07 05:39:39;;;;;;;12.13;9.63;;;16.90;99.90;;;;;;5033937;28;20024;-90
2022/07/07 05:42:05;;;;;;;16.58;10.73;;;17.00;99.90;;;;;;5034167;28;20025;-85
2022/07/07 05:44:31;;;;;;;13.68;11.45;;;17.10;99.90;;;;;;5034682;28;20025;-90
2022/07/07 05:46:57;;;;;;;14.85;11.65;;;17.10;99.90;;;;;;5034049;28;20028;-85
2022/07/07 05:49:23;;;;;;;13.02;10.68;;;17.10;99.90;;;;;;5034783;28;20363;-84
2022/07/07 05:51:49;;;;;;;15.38;11.63;;;17.20;99.90;;;;;;5057754;28;20382;-87
2022/07/07 05:54:21;;;;;;;16.48;9.90;;;17.20;99.90;;;;;;5053735;28;20031;-90
2022/07/07 05:56:47;;;;;;;11.00;8.75;;;17.30;99.90;;;;;;5082254;28;20024;-88
2022/07/07 05:59:13;;;;;;;11.82;9.07;;;17.40;99.90;;;;;;5089230;28;20031;-85
2022/07/07 06:01:44;;;;;;;10.68;9.32;;;17.40;99.90;;;;;;5066907;28;20028;-88
2022/07/07 06:04:15;;;;;;;15.63;8.57;;;17.50;99.90;;;;;;5060952;28;20023;-85
2022/07/07 06:06:42;;;;;;;11.95;8.48;;;17.50;98.70;;;;;;5060270;28;20465;-84
2022/07/07 06:09:10;;;;;;;12.48;8.30;;;17.60;97.40;;;;;;5046547;28;20034;-89
2022/07/07 06:11:39;;;;;;;9.10;7.10;;;17.60;90.90;;;;;;5057329;28;20555;-84
2022/07/07 06:14:05;;;;;;;12.00;7.43;;;17.80;88.60;;;;;;5051433;28;20032;-88
2022/07/07 06:16:43;;;;;;;9.68;6.97;;;17.90;86.60;;;;;;5053345;28;20040;-89
2022/07/07 06:19:18;;;;;;;8.15;7.28;;;18.10;86.50;;;;;;5062329;28;20111;-90
2022/07/07 06:21:50;;;;;;;8.50;5.88;;;18.30;88.50;;;;;;5060800;28;20033;-89
2022/07/07 06:24:21;;;;;;;7.33;5.97;;;18.30;81.40;;;;;;5072969;28;20026;-85
2022/07/07 06:26:47;;;;;;;6.55;5.18;;;18.40;80.10;;;;;;5058348;28;20025;-83
2022/07/07 06:29:21;;;;;;;10.73;5.50;;;18.50;80.40;;;;;;5065685;28;20103;-84
2022/07/07 06:31:49;;;;;;;6.97;5.25;;;18.70;79.40;;;;;;5068465;28;20032;-84
2022/07/07 06:34:16;;;;;;;6.03;5.07;;;18.90;78.10;;;;;;5096128;28;20024;-85
2022/07/07 06:37:08;;;;;;;7.43;5.18;;;19.00;75.20;;;;;;5075373;28;20041;-87
2022/07/07 06:40:04;;;;;;;7.20;4.68;;;19.20;74.60;;;;;;5061532;28;20073;-90
2022/07/07 06:42:40;;;;;;;9.25;4.35;;;19.40;71.80;;;;;;5044563;28;20090;-85
2022/07/07 06:45:07;;;;;;;8.48;5.65;;;19.60;70.40;;;;;;5075998;28;20114;-85
2022/07/07 06:47:33;;;;;;;6.10;4.03;;;19.70;68.80;;;;;;5089582;28;20062;-84
2022/07/07 06:50:11;;;;;;;6.72;3.92;;;19.80;68.10;;;;;;5075910;28;20028;-90
2022/07/07 06:53:00;;;;;;;6.32;3.78;;;19.80;65.80;;;;;;5047637;28;20012;-90
2022/07/07 06:55:26;;;;;;;5.97;3.67;;;19.90;64.60;;;;;;5067268;28;20074;-90
2022/07/07 06:58:02;;;;;;;4.93;3.25;;;20.00;66.40;;;;;;5070804;28;20020;-90
2022/07/07 07:00:30;;;;;;;6.15;3.35;;;19.90;65.80;;;;;;5073220;28;20047;-84
2022/07/07 07:03:14;;;;;;;9.32;3.55;;;20.10;62.80;;;;;;5071358;28;20036;-85
2022/07/07 07:05:49;;;;;;;4.88;2.30;;;20.10;61.40;;;;;;5070264;28;20045;-90
2022/07/07 07:08:22;;;;;;;6.03;2.00;;;20.10;59.70;;;;;;5069042;28;20101;-84
2022/07/07 07:10:48;;;;;;;6.85;2.40;;;20.10;56.70;;;;;;5067717;28;20049;-84
2022/07/07 07:13:14;;;;;;;8.15;2.40;;;20.30;56.30;;;;;;5071052;28;20205;-90
2022/07/07 07:15:52;;;;;;;;;;;;;;;;;;;;;
2022/07/07 07:18:26;;;;;;;5.05;2.38;;;20.40;56.70;;;;;;5072914;28;20032;-90
2022/07/07 07:20:52;;;;;;;3.83;2.10;;;20.30;56.00;;;;;;5054631;28;20064;-90
2022/07/07 07:23:24;;;;;;;3.35;2.80;;;20.60;56.00;;;;;;5070758;28;20024;-85
2022/07/07 07:26:20;;;;;;;;;;;20.80;57.80;;;;;;5070829;28;20047;-85
2022/07/07 07:28:49;;;;;;;4.03;2.95;;;21.00;56.90;;;;;;5055918;28;19908;-90
2022/07/07 07:31:23;;;;;;;3.95;2.55;;;20.80;55.50;;;;;;5064621;28;20043;-85
2022/07/07 07:33:53;;;;;;;3.25;2.80;;;20.90;55.60;;;;;;5069932;28;20115;-85
2022/07/07 07:36:19;;;;;;;2.95;2.58;;;20.80;55.90;;;;;;5071612;28;20048;-85
2022/07/07 07:38:52;;;;;;;6.70;3.00;;;20.50;56.40;;;;;;5070776;28;20497;-86
2022/07/07 07:41:54;;;;;;;6.68;2.85;;;20.40;58.50;;;;;;5070581;28;20043;-85
2022/07/07 07:47:11;;;;;;;5.07;2.67;;;20.90;56.70;;;;;;5048288;28;20500;-86
2022/07/07 07:49:56;;;;;;;4.28;2.63;;;20.90;57.50;;;;;;5071429;28;20020;-90
2022/07/07 07:53:03;;;;;;;6.43;2.75;;;21.00;56.70;;;;;;5049837;28;20065;-85
2022/07/07 07:55:32;;;;;;;4.50;2.40;;;20.90;56.00;;;;;;5043509;28;20093;-85
2022/07/07 07:57:58;;;;;;;5.25;2.60;;;21.20;55.40;;;;;;5071279;28;20064;-85
2022/07/07 08:00:26;;;;;;;4.78;3.15;;;21.50;56.20;;;;;;5071170;28;20025;-89
2022/07/07 08:02:52;;;;;;;7.93;4.57;;;21.60;55.20;;;;;;5062041;28;20033;-89
2022/07/07 08:05:21;;;;;;;5.55;3.63;;;21.60;53.60;;;;;;5045225;28;20028;-90
2022/07/07 08:07:50;;;;;;;4.60;2.95;;;21.70;52.70;;;;;;5057231;28;20478;-90
2022/07/07 08:10:19;;;;;;;4.03;3.55;;;21.80;53.30;;;;;;5075159;28;20456;-89
2022/07/07 08:12:47;;;;;;;4.15;3.25;;;21.90;53.90;;;;;;5061031;28;20110;-90
2022/07/07 08:15:14;;;;;;;5.47;3.28;;;21.60;52.90;;;;;;5075962;28;20040;-85
2022/07/07 08:17:45;;;;;;;6.07;3.35;;;21.40;52.70;;;;;;5073487;28;20028;-87
2022/07/07 08:20:12;;;;;;;10.70;3.28;;;21.60;53.90;;;;;;5074424;28;20057;-85
2022/07/07 08:22:45;;;;;;;4.80;2.80;;;21.80;53.90;;;;;;5070136;28;20059;-90
2022/07/07 08:25:14;;;;;;;6.25;3.80;;;22.10;53.00;;;;;;5070730;28;20028;-89
2022/07/07 08:27:42;;;;;;;8.25;4.70;;;22.10;53.60;;;;;;5063889;28;20040;-84
2022/07/07 08:30:40;;;;;;;9.55;4.32;;;22.10;54.20;;;;;;5056337;28;20024;-85
2022/07/07 08:33:16;;;;;;;9.90;4.95;;;22.10;54.10;;;;;;5063344;28;20037;-85
2022/07/07 08:36:00;;;;;;;10.50;5.28;;;21.70;54.70;;;;;;5080821;28;20558;-85
2022/07/07 08:38:35;;;;;;;9.50;4.95;;;21.50;55.90;;;;;;5031474;28;20037;-89
2022/07/07 08:41:06;;;;;;;11.27;4.90;;;21.70;57.50;;;;;;5059602;28;20028;-86
2022/07/07 08:44:16;;;;;;;12.80;5.10;;;21.80;56.40;;;;;;5043634;28;20514;-89
2022/07/07 08:49:27;;;;;;;6.93;4.78;;;21.50;56.00;;;;;;5068579;28;20028;-91
2022/07/07 08:52:08;;;;;;;10.40;5.13;;;21.30;56.80;;;;;;5064252;28;20043;-90
2022/07/07 08:54:39;;;;;;;8.15;4.40;;;21.10;56.10;;;;;;5058209;28;20383;-85
2022/07/07 08:57:07;;;;;;;11.00;5.35;;;21.00;56.80;;;;;;5061691;28;20036;-85
2022/07/07 08:59:40;;;;;;;7.68;6.20;;;21.00;56.30;;;;;;5040812;28;20025;-84
2022/07/07 09:02:08;;;;;;;10.00;5.70;;;21.00;57.00;;;;;;5063634;28;20032;-85
2022/07/07 09:04:37;;;;;;;7.22;4.55;;;21.20;58.80;;;;;;5051334;28;20032;-90
2022/07/07 09:07:04;;;;;;;6.00;3.92;;;21.50;59.20;;;;;;5091208;28;20043;-90
2022/07/07 09:09:43;;;;;;;15.32;4.57;;;21.50;56.10;;;;;;5072441;28;20458;-86
2022/07/07 09:12:11;;;;;;;7.85;3.40;;;21.90;57.70;;;;;;5052290;28;20440;-90
2022/07/07 09:14:48;;;;;;;9.88;3.97;;;21.90;55.80;;;;;;5058444;28;20046;-85
2022/07/07 09:17:31;;;;;;;9.35;4.10;;;21.90;55.20;;;;;;5072539;28;20028;-85
2022/07/07 09:20:03;;;;;;;9.35;3.95;;;22.00;55.10;;;;;;5066048;28;20031;-89
2022/07/07 09:22:53;;;;;;;5.90;3.88;;;22.10;56.00;;;;;;5089895;28;20386;-89
2022/07/07 09:25:23;;;;;;;8.70;5.07;;;22.00;54.90;;;;;;5074056;28;20036;-90
2022/07/07 09:27:53;;;;;;;7.93;4.03;;;21.80;55.60;;;;;;5036566;28;20126;-90
2022/07/07 09:30:48;;;;;;;6.10;4.13;;;21.60;55.60;;;;;;5056406;28;20016;-90
2022/07/07 09:33:19;;;;;;;5.53;3.65;;;21.40;56.10;;;;;;5058713;28;20501;-90
2022/07/07 09:38:38;;;;;;;8.85;4.20;;;21.80;57.70;;;;;;5089799;28;20073;-86
2022/07/07 09:41:08;;;;;;;5.03;3.80;;;21.60;55.10;;;;;;5090894;28;20035;-83
2022/07/07 09:43:51;;;;;;;7.28;3.65;;;21.60;55.50;;;;;;5073204;28;20044;-84
2022/07/07 09:46:20;;;;;;;5.65;3.53;;;21.40;56.30;;;;;;5080915;28;20030;-85
2022/07/07 09:49:51;;;;;;;8.50;4.10;;;21.30;56.10;;;;;;5069862;28;20111;-89
2022/07/07 09:52:15;;;;;;;6.70;3.72;;;21.40;55.90;;;;;;5061656;28;20056;-85
2022/07/07 09:54:51;;;;;;;6.30;3.63;;;21.30;55.80;;;;;;5046108;28;20025;-84
2022/07/07 09:57:17;;;;;;;5.13;3.38;;;21.70;56.60;;;;;;5072066;28;20038;-85
2022/07/07 09:59:46;;;;;;;6.15;4.32;;;21.70;56.20;;;;;;5090166;28;20035;-85
2022/07/07 10:02:20;;;;;;;4.80;3.55;;;21.90;54.90;;;;;;5063227;28;20016;-90
2022/07/07 10:04:56;;;;;;;10.93;4.32;;;22.20;54.50;;;;;;5092750;28;20024;-85
2022/07/07 10:07:24;;;;;;;9.38;4.10;;;22.20;53.70;;;;;;5074325;28;20032;-89
2022/07/07 10:10:05;;;;;;;6.80;4.90;;;22.50;53.90;;;;;;5061014;28;20039;-89
2022/07/07 10:12:32;;;;;;;8.63;4.53;;;22.20;53.40;;;;;;5094686;28;20077;-84
2022/07/07 10:15:02;;;;;;;4.65;3.72;;;22.20;54.20;;;;;;5067604;28;20044;-85
2022/07/07 10:17:29;;;;;;;5.25;3.22;;;22.70;55.70;;;;;;5063067;28;20027;-85
2022/07/07 10:20:02;;;;;;;4.05;3.58;;;22.80;52.00;;;;;;5089300;28;20059;-86
2022/07/07 10:22:34;;;;;;;11.02;3.95;;;23.20;51.80;;;;;;5074003;28;20095;-89
2022/07/07 10:25:03;;;;;;;5.32;4.43;;;23.10;51.10;;;;;;5075809;28;20031;-86
2022/07/07 10:27:30;;;;;;;5.50;3.83;;;22.70;50.20;;;;;;5091360;28;20513;-85
2022/07/07 10:29:57;;;;;;;5.45;3.80;;;22.50;50.70;;;;;;5076002;28;20040;-90
2022/07/07 10:32:35;;;;;;;6.65;4.35;;;22.40;52.10;;;;;;5068906;28;20166;-85
2022/07/07 10:35:13;;;;;;;9.57;4.63;;;22.30;52.90;;;;;;5060581;28;20478;-85
2022/07/07 10:37:56;;;;;;;6.55;4.28;;;22.10;53.30;;;;;;5049452;28;20102;-85
2022/07/07 10:40:29;;;;;;;6.63;4.20;;;21.80;53.70;;;;;;5093734;28;20020;-85
2022/07/07 10:43:38;;;;;;;9.48;4.30;;;21.60;54.40;;;;;;5075723;28;20370;-84
2022/07/07 10:46:07;;;;;;;7.70;4.13;;;21.50;55.10;;;;;;5065263;28;20466;-89
2022/07/07 10:48:43;;;;;;;5.57;4.20;;;21.40;55.60;;;;;;5060329;28;20045;-89
2022/07/07 10:51:20;;;;;;;8.60;4.10;;;21.50;56.30;;;;;;5054779;28;20029;-85
2022/07/07 10:53:57;;;;;;;7.55;3.85;;;21.70;57.50;;;;;;5066240;28;20074;-85
2022/07/07 10:56:31;;;;;;;5.68;3.80;;;21.90;56.80;;;;;;5070085;28;20485;-84
2022/07/07 10:59:06;;;;;;;7.28;4.55;;;21.90;55.90;;;;;;5064744;28;20038;-84
2022/07/07 11:01:32;;;;;;;6.15;3.92;;;21.80;55.30;;;;;;5048514;28;20447;-88
2022/07/07 11:04:03;;;;;;;4.97;3.30;;;21.70;53.50;;;;;;5055163;28;20044;-84
2022/07/07 11:06:29;;;;;;;9.27;4.03;;;21.60;54.10;;;;;;5090798;28;20028;-84
2022/07/07 11:08:58;;;;;;;17.60;4.20;;;21.50;55.30;;;;;;5066008;28;20382;-84
2022/07/07 11:11:27;;;;;;;5.15;3.58;;;21.50;54.50;;;;;;5081844;28;20029;-88
2022/07/07 11:14:18;;;;;;;9.55;3.20;;;21.60;55.60;;;;;;5051445;28;20490;-84
2022/07/07 11:16:57;;;;;;;5.35;3.33;;;21.60;55.40;;;;;;5051699;28;20042;-88
2022/07/07 11:19:22;;;;;;;4.03;3.63;;;21.70;54.80;;;;;;5061030;28;20067;-89
2022/07/07 11:21:51;;;;;;;5.80;3.25;;;21.80;55.40;;;;;;5075419;28;20054;-85
2022/07/07 11:24:24;;;;;;;8.05;3.22;;;22.20;56.10;;;;;;5092073;28;20069;-88
2022/07/07 11:26:54;;;;;;;;;;;22.40;52.70;;;;;;5092416;28;20031;-85
2022/07/07 11:29:22;;;;;;;6.32;3.20;;;22.90;53.30;;;;;;5058726;28;19904;-89
2022/07/07 11:31:48;;;;;;;5.05;3.53;;;23.30;53.20;;;;;;5074123;28;20024;-88
2022/07/07 11:34:18;;;;;;;5.65;2.95;;;23.70;52.10;;;;;;5065345;28;20119;-89
2022/07/07 11:36:44;;;;;;;2.80;2.60;;;23.60;48.90;;;;;;5073322;28;20131;-88
2022/07/07 11:39:13;;;;;;;4.50;3.15;;;23.50;48.40;;;;;;5034730;28;20132;-84
2022/07/07 11:41:44;;;;;;;6.85;3.30;;;23.30;49.60;;;;;;5091103;28;20031;-88
2022/07/07 11:44:21;;;;;;;8.88;4.18;;;23.20;50.30;;;;;;5043653;28;20048;-84
2022/07/07 11:46:51;;;;;;;5.82;2.88;;;23.10;50.60;;;;;;5084061;28;20020;-84
2022/07/07 11:49:19;;;;;;;5.35;3.05;;;23.10;50.50;;;;;;5055283;28;20036;-89
2022/07/07 11:51:46;;;;;;;4.30;3.25;;;23.10;50.90;;;;;;5092488;28;20028;-83
2022/07/07 11:54:12;;;;;;;9.27;2.65;;;23.20;50.80;;;;;;5081132;28;20041;-84
2022/07/07 11:56:38;;;;;;;7.65;3.45;;;23.50;51.60;;;;;;5053998;28;20040;-84
2022/07/07 11:59:07;;;;;;;6.97;3.30;;;23.70;52.20;;;;;;5079554;28;20024;-83
2022/07/07 12:01:40;;;;;;;5.88;2.78;;;23.90;50.40;;;;;;5077045;28;20020;-83
2022/07/07 12:04:23;;;;;;;3.67;2.80;;;23.90;48.40;;;;;;5065951;28;20102;-88
2022/07/07 12:06:52;;;;;;;7.72;3.72;;;24.10;48.80;;;;;;5048994;28;20111;-84
2022/07/07 12:09:21;;;;;;;6.07;2.92;;;24.20;48.30;;;;;;5064235;28;20052;-84
2022/07/07 12:11:51;;;;;;;5.28;2.90;;;24.40;48.50;;;;;;5093140;28;20085;-88
2022/07/07 12:14:17;;;;;;;7.57;3.03;;;24.30;47.20;;;;;;5047765;28;20021;-84
2022/07/07 12:16:51;;;;;;;8.02;3.15;;;24.20;46.80;;;;;;5074881;28;20152;-90
2022/07/07 12:19:17;;;;;;;4.93;2.92;;;24.00;45.80;;;;;;5057330;28;20059;-89
2022/07/07 12:21:47;;;;;;;5.03;2.97;;;24.10;46.20;;;;;;5072041;28;20470;-83
2022/07/07 12:24:14;;;;;;;3.30;3.00;;;24.40;48.50;;;;;;5061348;28;20027;-89
2022/07/07 12:26:49;;;;;;;5.97;2.90;;;24.70;47.40;;;;;;5073837;28;20020;-87
2022/07/07 12:29:19;;;;;;;4.63;3.40;;;24.80;47.50;;;;;;5070564;28;20016;-88
2022/07/07 12:31:47;;;;;;;8.00;3.78;;;25.00;48.40;;;;;;5091587;28;20034;-85
2022/07/07 12:34:15;;;;;;;3.92;3.63;;;25.30;47.10;;;;;;5091923;28;20020;-87
2022/07/07 12:36:42;;;;;;;6.35;3.63;;;25.20;46.00;;;;;;5060731;28;20106;-91
2022/07/07 12:39:08;;;;;;;5.57;3.55;;;25.10;45.60;;;;;;5073570;28;20046;-89
2022/07/07 12:41:39;;;;;;;7.85;3.90;;;25.10;44.70;;;;;;5090833;28;20036;-90
2022/07/07 12:44:19;;;;;;;6.75;3.35;;;25.00;44.40;;;;;;5041820;28;20031;-88
2022/07/07 12:46:45;;;;;;;6.28;3.03;;;24.90;45.50;;;;;;5069252;28;20043;-84
2022/07/07 12:49:15;;;;;;;5.82;3.80;;;24.90;45.40;;;;;;5092583;28;20031;-84
2022/07/07 12:51:51;;;;;;;4.50;3.33;;;24.90;46.40;;;;;;5046953;28;20394;-88
2022/07/07 12:54:25;;;;;;;6.30;3.30;;;24.90;46.20;;;;;;5063542;28;20025;-84
2022/07/07 12:57:01;;;;;;;5.80;3.30;;;24.70;46.70;;;;;;5057214;28;20119;-88
2022/07/07 12:59:33;;;;;;;4.78;3.83;;;24.70;46.30;;;;;;5073709;28;20028;-84
2022/07/07 13:01:59;;;;;;;;;;;24.80;47.10;;;;;;5071318;28;20040;-89
2022/07/07 13:04:25;;;;;;;6.28;3.78;;;24.70;46.60;;;;;;5068046;28;19904;-87
2022/07/07 13:06:52;;;;;;;5.40;2.60;;;24.30;46.20;;;;;;5054905;28;20044;-88
2022/07/07 13:09:21;;;;;;;4.97;2.70;;;24.30;45.80;;;;;;5073146;28;20056;-84